Time;durP1;ratioP1;P1;durP2;ratioP2;P2;SDS_P1;SDS_P2;PMS_P1;PMS_P2;Temp;Humidity;BMP_temperature;BMP_pressure;BME280_temperature;BME280_humidity;BME280_pressure;Samples;Min_cycle;Max_cycle;Signal;HPM_P1;HPM_P2
2021/12/04 00:02:24;;;;;;;26.50;19.40;;;;;;;3.45;100.00;99921.56;4868674;29;20205;-80
2021/12/04 00:04:52;;;;;;;24.45;19.80;;;;;;;3.45;100.00;99931.28;4901092;29;20174;-79
2021/12/04 00:07:18;;;;;;;26.98;20.10;;;;;;;3.39;100.00;99920.81;4900946;29;20169;-79
2021/12/04 00:09:46;;;;;;;26.52;20.00;;;;;;;3.45;100.00;99915.41;4883907;29;20690;-80
2021/12/04 00:12:12;;;;;;;27.77;22.33;;;;;;;3.44;100.00;99926.91;4900570;29;20225;-80
2021/12/04 00:14:38;;;;;;;27.80;20.83;;;;;;;3.42;100.00;99926.06;4900404;29;20547;-80
2021/12/04 00:17:04;;;;;;;30.00;21.75;;;;;;;3.52;100.00;99917.00;4883207;29;20264;-80
2021/12/04 00:19:31;;;;;;;28.13;22.35;;;;;;;3.48;100.00;99918.00;4883520;29;20192;-80
2021/12/04 00:21:57;;;;;;;29.98;21.83;;;;;;;3.43;100.00;99918.09;4900817;29;20243;-79
2021/12/04 00:24:23;;;;;;;31.50;21.65;;;;;;;3.53;100.00;99921.38;4903001;29;20196;-80
2021/12/04 00:26:50;;;;;;;35.35;22.15;;;;;;;3.50;100.00;99918.81;4902530;29;20180;-79
2021/12/04 00:29:16;;;;;;;32.60;22.40;;;;;;;3.50;100.00;99924.97;4902092;29;20170;-79
2021/12/04 00:31:49;;;;;;;33.00;22.90;;;;;;;3.51;100.00;99926.72;4885250;29;20172;-79
2021/12/04 00:34:17;;;;;;;38.30;24.00;;;;;;;3.52;100.00;99922.31;4902265;29;20611;-79
2021/12/04 00:50:12;;;;;;;47.95;27.95;;;;;;;3.51;100.00;99937.31;4900868;29;20204;-79
2021/12/04 00:52:39;;;;;;;45.40;27.65;;;;;;;3.52;100.00;99948.78;4884453;29;20169;-79
2021/12/04 00:55:05;;;;;;;51.08;29.67;;;;;;;3.51;100.00;99931.16;4901033;29;20279;-79
2021/12/04 00:57:32;;;;;;;51.50;28.20;;;;;;;3.53;100.00;99939.06;4899290;29;20233;-79
2021/12/04 00:59:57;;;;;;;54.75;30.67;;;;;;;3.48;100.00;99940.03;4899584;29;20196;-79
2021/12/04 01:02:23;;;;;;;53.97;31.15;;;;;;;3.51;100.00;99933.78;4898475;29;20231;-80
2021/12/04 01:04:49;;;;;;;55.50;29.98;;;;;;;3.58;100.00;99932.72;4900121;29;20200;-80
2021/12/04 01:07:16;;;;;;;53.78;30.33;;;;;;;3.52;100.00;99943.50;4883618;29;20184;-80
2021/12/04 01:09:43;;;;;;;58.10;31.02;;;;;;;3.51;100.00;99932.00;4899261;29;20512;-80
2021/12/04 01:12:08;;;;;;;48.50;28.98;;;;;;;3.53;100.00;99934.63;4898293;29;20260;-79
2021/12/04 01:14:34;;;;;;;52.25;29.70;;;;;;;3.51;100.00;99928.50;4899576;29;20168;-80
2021/12/04 01:17:00;;;;;;;51.00;28.45;;;;;;;3.52;100.00;99932.91;4898165;29;20177;-80
2021/12/04 01:19:26;;;;;;;54.85;30.95;;;;;;;3.51;100.00;99934.66;4899858;29;20196;-80
2021/12/04 01:21:53;;;;;;;58.90;30.88;;;;;;;3.54;100.00;99935.50;4900086;29;20213;-80
2021/12/04 01:24:19;;;;;;;54.95;30.48;;;;;;;3.53;100.00;99939.94;4899913;29;20184;-80
2021/12/04 01:26:46;;;;;;;52.58;29.70;;;;;;;3.56;100.00;99938.97;4899759;29;20169;-80
2021/12/04 01:29:12;;;;;;;58.30;31.90;;;;;;;3.57;100.00;99931.00;4898713;29;20192;-79
2021/12/04 01:31:37;;;;;;;56.60;31.10;;;;;;;3.55;100.00;99934.59;4899109;29;20903;-79
2021/12/04 01:34:03;;;;;;;64.53;33.25;;;;;;;3.54;100.00;99936.34;4898397;29;20507;-79
2021/12/04 01:36:29;;;;;;;64.45;32.10;;;;;;;3.54;100.00;99933.69;4882733;29;20267;-80
2021/12/04 01:38:55;;;;;;;64.03;33.60;;;;;;;3.59;100.00;99945.09;4882216;29;20626;-80
2021/12/04 01:41:20;;;;;;;69.20;33.97;;;;;;;3.61;100.00;99937.97;4898224;29;20220;-80
2021/12/04 01:43:46;;;;;;;73.72;35.78;;;;;;;3.57;100.00;99944.25;4898353;29;20177;-80
2021/12/04 01:46:11;;;;;;;71.20;34.88;;;;;;;3.58;100.00;99935.38;4897067;29;20176;-81
2021/12/04 01:48:37;;;;;;;69.70;36.30;;;;;;;3.56;100.00;99942.50;4881052;29;20233;-80
2021/12/04 01:51:03;;;;;;;71.57;35.20;;;;;;;3.58;100.00;99937.16;4898098;29;20224;-81
2021/12/04 01:53:28;;;;;;;75.65;35.42;;;;;;;3.57;100.00;99952.19;4896371;29;20196;-80
2021/12/04 01:55:56;;;;;;;73.63;34.67;;;;;;;3.57;100.00;99946.91;4898729;29;20200;-80
2021/12/04 01:58:23;;;;;;;73.15;35.22;;;;;;;3.59;100.00;99950.38;4897011;29;20223;-80
2021/12/04 02:00:48;;;;;;;72.57;34.75;;;;;;;3.58;100.00;99951.28;4898239;29;20200;-80
2021/12/04 02:03:14;;;;;;;74.90;35.60;;;;;;;3.60;100.00;99935.34;4881735;29;20263;-80
2021/12/04 02:05:41;;;;;;;70.15;34.78;;;;;;;3.64;100.00;99935.25;4897394;29;20536;-80
2021/12/04 02:08:13;;;;;;;70.10;34.53;;;;;;;3.62;100.00;99945.00;4898357;29;20184;-80
2021/12/04 02:10:39;;;;;;;63.63;34.78;;;;;;;3.61;100.00;99943.28;4896430;29;20200;-79
2021/12/04 02:13:05;;;;;;;66.55;32.75;;;;;;;3.62;100.00;99947.66;4895143;29;20188;-80
2021/12/04 02:15:30;;;;;;;74.60;34.78;;;;;;;3.58;100.00;99955.69;4895258;29;20173;-79
2021/12/04 02:17:56;;;;;;;72.05;34.40;;;;;;;3.60;100.00;99948.59;4897780;29;20184;-79
2021/12/04 02:20:26;;;;;;;68.85;32.58;;;;;;;3.59;100.00;99955.69;4912788;29;20613;-79
2021/12/04 02:22:51;;;;;;;77.70;37.42;;;;;;;3.60;100.00;99952.09;4897640;29;20560;-80
2021/12/04 02:25:17;;;;;;;73.53;33.78;;;;;;;3.61;100.00;99961.81;4915487;29;20212;-79
2021/12/04 02:27:43;;;;;;;69.80;34.95;;;;;;;3.59;100.00;99954.81;4914672;29;20184;-79
2021/12/04 02:30:13;;;;;;;74.95;36.22;;;;;;;3.58;100.00;99955.69;4916307;29;20263;-79
2021/12/04 02:32:39;;;;;;;78.03;34.85;;;;;;;3.60;100.00;99949.47;4916422;29;20168;-78
2021/12/04 02:35:07;;;;;;;78.15;35.42;;;;;;;3.59;100.00;99950.38;4915467;29;20179;-78
2021/12/04 02:37:34;;;;;;;69.88;35.45;;;;;;;3.61;100.00;99959.16;4897660;29;20223;-78
2021/12/04 02:40:00;;;;;;;72.15;35.17;;;;;;;3.63;100.00;99941.47;4913894;29;20263;-78
2021/12/04 02:42:30;;;;;;;69.10;35.85;;;;;;;3.64;100.00;99937.03;4897916;29;20674;-78
2021/12/04 02:44:57;;;;;;;73.95;35.30;;;;;;;3.62;100.00;99945.00;4914803;29;20175;-78
2021/12/04 02:47:23;;;;;;;76.93;36.88;;;;;;;3.55;100.00;99932.81;4897481;29;20172;-78
2021/12/04 02:49:48;;;;;;;74.78;36.00;;;;;;;3.58;100.00;99937.16;4898146;29;20211;-79
2021/12/04 02:52:14;;;;;;;81.85;38.15;;;;;;;3.57;100.00;99944.25;4915389;29;20160;-79
2021/12/04 02:54:40;;;;;;;78.70;37.78;;;;;;;3.56;100.00;99941.63;4891467;29;20646;-79
2021/12/04 02:57:10;;;;;;;84.97;37.83;;;;;;;3.55;100.00;99943.41;4902427;29;20437;-79
2021/12/04 02:59:38;;;;;;;76.15;36.78;;;;;;;3.56;100.00;99941.63;4902731;29;20256;-79
2021/12/04 03:02:05;;;;;;;81.30;36.13;;;;;;;3.56;100.00;99933.69;4901365;29;20693;-79
2021/12/04 03:04:31;;;;;;;77.28;35.10;;;;;;;3.58;100.00;99937.16;4887800;29;20177;-79
2021/12/04 03:06:57;;;;;;;74.47;35.67;;;;;;;3.56;100.00;99934.53;4905085;29;20280;-79
2021/12/04 03:09:22;;;;;;;73.88;34.00;;;;;;;3.56;100.00;99937.19;4904658;29;20638;-79
2021/12/04 03:11:48;;;;;;;69.13;34.83;;;;;;;3.55;100.00;99935.47;4906650;29;20165;-79
2021/12/04 03:14:13;;;;;;;69.63;33.25;;;;;;;3.54;100.00;99925.75;4905711;29;20177;-80
2021/12/04 03:16:40;;;;;;;70.25;32.42;;;;;;;3.52;100.00;99922.31;4900878;29;20668;-81
2021/12/04 03:19:06;;;;;;;65.38;31.90;;;;;;;3.52;100.00;99919.66;4902817;29;20204;-80
2021/12/04 03:21:34;;;;;;;62.58;31.75;;;;;;;3.48;100.00;99918.84;4885501;29;20260;-80
2021/12/04 03:24:03;;;;;;;61.88;31.35;;;;;;;3.52;100.00;99927.59;4869651;29;20211;-81
2021/12/04 03:26:28;;;;;;;61.80;30.02;;;;;;;3.53;100.00;99926.69;4901562;29;20172;-81
2021/12/04 03:28:56;;;;;;;68.53;31.40;;;;;;;3.51;100.00;99926.72;4899627;29;20204;-81
2021/12/04 03:42:13;;;;;;;64.93;31.25;;;;;;;3.48;100.00;99916.19;4901404;29;20217;-81
2021/12/04 03:44:39;;;;;;;70.32;32.15;;;;;;;3.49;100.00;99919.72;4884073;29;20184;-81
2021/12/04 03:47:05;;;;;;;64.90;31.15;;;;;;;3.51;100.00;99925.84;4883777;29;20336;-81
2021/12/04 03:49:31;;;;;;;66.88;32.10;;;;;;;3.48;100.00;99926.78;4899768;29;20201;-81
2021/12/04 03:51:56;;;;;;;77.03;32.03;;;;;;;3.49;100.00;99915.28;4867929;29;20165;-81
2021/12/04 03:54:21;;;;;;;69.40;31.25;;;;;;;3.48;100.00;99926.78;4899437;29;20197;-81
2021/12/04 03:56:47;;;;;;;73.10;32.00;;;;;;;3.44;100.00;99933.06;4899046;29;20555;-81
2021/12/04 03:59:13;;;;;;;73.55;31.27;;;;;;;3.46;100.00;99927.75;4898682;29;20236;-81
2021/12/04 04:01:38;;;;;;;69.93;31.15;;;;;;;3.48;100.00;99926.78;4900763;29;20200;-81
2021/12/04 04:04:04;;;;;;;75.75;33.65;;;;;;;3.46;100.00;99927.75;4898742;29;20177;-81
2021/12/04 04:06:29;;;;;;;86.07;34.67;;;;;;;3.44;100.00;99921.63;4900199;29;20176;-82
2021/12/04 04:08:54;;;;;;;79.63;34.20;;;;;;;3.42;100.00;99929.59;4898536;29;20185;-81
2021/12/04 04:11:20;;;;;;;83.57;35.78;;;;;;;3.45;100.00;99934.78;4900391;29;20197;-80
2021/12/04 04:13:45;;;;;;;87.22;34.70;;;;;;;3.43;100.00;99928.69;4905525;29;20205;-79
2021/12/04 04:16:12;;;;;;;84.68;33.70;;;;;;;3.46;100.00;99940.97;4902680;29;20193;-79
2021/12/04 04:18:37;;;;;;;79.25;33.33;;;;;;;3.43;100.00;99933.09;4889207;29;20186;-80
2021/12/04 04:21:03;;;;;;;83.43;33.67;;;;;;;3.40;100.00;99934.03;4908400;29;20236;-79
2021/12/04 04:23:29;;;;;;;76.80;32.63;;;;;;;3.47;100.00;99929.47;4889673;29;20598;-79
2021/12/04 04:25:54;;;;;;;72.97;32.55;;;;;;;3.41;100.00;99926.97;4890880;29;20277;-80
2021/12/04 04:28:20;;;;;;;68.47;31.45;;;;;;;3.43;100.00;99935.75;4904440;29;20264;-80
2021/12/04 04:30:46;;;;;;;74.13;32.05;;;;;;;3.47;100.00;99932.13;4878510;29;20316;-79
2021/12/04 04:33:14;;;;;;;74.25;31.95;;;;;;;3.44;100.00;99930.41;4923001;29;20169;-80
2021/12/04 04:35:40;;;;;;;67.97;30.73;;;;;;;3.41;100.00;99937.56;4930486;29;20168;-80
2021/12/04 04:57:38;;;;;;;63.70;28.50;;;;;;;3.40;100.00;99943.78;4922418;29;20207;-79
2021/12/04 05:00:22;;;;;;;59.50;27.42;;;;;;;3.39;100.00;99948.19;4919146;29;20727;-79
2021/12/04 05:13:19;;;;;;;63.72;28.08;;;;;;;3.35;100.00;99950.97;4918873;29;20164;-79
2021/12/04 05:20:55;;;;;;;55.92;27.00;;;;;;;3.43;100.00;99956.94;4918220;29;20286;-79
2021/12/04 05:23:22;;;;;;;52.88;25.92;;;;;;;3.38;100.00;99957.03;4901452;29;20227;-79
2021/12/04 05:25:48;;;;;;;63.17;28.33;;;;;;;3.35;100.00;99954.47;4918383;29;20169;-79
2021/12/04 05:28:13;;;;;;;53.58;27.30;;;;;;;3.36;100.00;99956.19;4918148;29;20228;-79
2021/12/04 05:30:39;;;;;;;53.72;27.00;;;;;;;3.36;100.00;99950.91;4918432;29;20270;-79
2021/12/04 05:33:05;;;;;;;57.05;27.02;;;;;;;3.35;100.00;99948.31;4918401;29;20172;-79
2021/12/04 05:35:31;;;;;;;54.78;25.98;;;;;;;3.39;100.00;99947.31;4901820;29;20211;-80
2021/12/04 05:37:57;;;;;;;53.97;26.23;;;;;;;3.44;100.00;99942.78;4901175;29;20344;-79
2021/12/04 05:40:23;;;;;;;52.95;25.25;;;;;;;3.37;100.00;99950.00;4919092;29;20697;-79
2021/12/04 05:42:49;;;;;;;47.25;24.35;;;;;;;3.36;100.00;99942.09;4918587;29;20222;-79
2021/12/04 05:45:18;;;;;;;54.17;25.55;;;;;;;3.38;100.00;99935.00;4917039;29;20172;-79
2021/12/04 05:47:59;;;;;;;53.17;25.55;;;;;;;3.40;100.00;99943.78;4901139;29;20190;-79
2021/12/04 05:50:43;;;;;;;49.33;24.17;;;;;;;3.33;100.00;99942.19;4901381;29;20204;-80
2021/12/04 05:55:54;;;;;;;47.92;22.88;;;;;;;3.33;100.00;99952.78;4916890;29;20272;-79
2021/12/04 05:58:24;;;;;;;45.00;22.02;;;;;;;3.34;100.00;99955.34;4919679;29;20156;-81
2021/12/04 06:00:50;;;;;;;46.03;22.52;;;;;;;3.36;100.00;99952.69;4917532;29;20264;-80
2021/12/04 06:03:15;;;;;;;45.55;23.17;;;;;;;3.34;100.00;99946.56;4904272;29;20859;-80
2021/12/04 06:05:41;;;;;;;45.15;22.42;;;;;;;3.35;100.00;99948.31;4918738;29;20601;-80
2021/12/04 06:08:06;;;;;;;44.10;21.38;;;;;;;3.36;100.00;99955.34;4901276;29;20211;-80
2021/12/04 06:10:32;;;;;;;43.10;21.80;;;;;;;3.36;100.00;99958.84;4919822;29;20196;-80
2021/12/04 06:12:57;;;;;;;47.80;23.00;;;;;;;3.34;100.00;99957.16;4901940;29;20180;-80
2021/12/04 06:15:23;;;;;;;47.22;22.50;;;;;;;3.36;100.00;99969.44;4918255;29;20168;-79
2021/12/04 06:17:51;;;;;;;46.45;22.75;;;;;;;3.38;100.00;99972.06;4900157;29;20187;-79
2021/12/04 06:23:01;;;;;;;45.85;22.15;;;;;;;3.34;100.00;99973.88;4918424;29;20175;-80
2021/12/04 06:25:27;;;;;;;43.80;21.42;;;;;;;3.34;100.00;99979.19;4918373;29;20231;-79
2021/12/04 06:27:54;;;;;;;40.63;20.92;;;;;;;3.36;100.00;99969.44;4916653;29;20247;-79
2021/12/04 06:30:20;;;;;;;46.00;22.80;;;;;;;3.36;100.00;99980.03;4899423;29;20243;-79
2021/12/04 06:32:48;;;;;;;44.55;22.45;;;;;;;3.34;100.00;99973.03;4918104;29;20485;-79
2021/12/04 06:35:17;;;;;;;41.88;20.95;;;;;;;3.34;100.00;99983.63;4917500;29;20653;-79
2021/12/04 06:37:42;;;;;;;40.10;21.25;;;;;;;3.28;100.00;99974.06;4916489;29;20184;-80
2021/12/04 06:40:13;;;;;;;46.05;21.88;;;;;;;3.28;100.00;99982.84;4903505;29;20575;-79
2021/12/04 06:42:40;;;;;;;41.92;20.73;;;;;;;3.33;100.00;99985.41;4920816;29;20570;-79
2021/12/04 06:45:06;;;;;;;41.65;20.85;;;;;;;3.28;100.00;99988.16;4903402;29;20254;-79
2021/12/04 06:47:32;;;;;;;44.08;22.15;;;;;;;3.28;100.00;99989.94;4919861;29;20191;-79
2021/12/04 06:50:05;;;;;;;47.53;21.83;;;;;;;3.23;100.00;99995.31;4903296;29;20199;-79
2021/12/04 06:52:31;;;;;;;37.33;19.00;;;;;;;3.20;100.00;99989.22;4904056;29;20183;-80
2021/12/04 06:55:02;;;;;;;38.75;19.25;;;;;;;3.16;100.00;99988.41;4907533;29;20173;-80
2021/12/04 06:57:32;;;;;;;38.63;18.70;;;;;;;3.18;100.00;99991.91;4901388;29;20690;-80
2021/12/04 06:59:59;;;;;;;40.20;19.63;;;;;;;3.18;100.00;99986.59;4902880;29;20232;-80
2021/12/04 07:02:24;;;;;;;37.17;18.63;;;;;;;3.20;100.00;99989.22;4886310;29;20210;-80
2021/12/04 07:04:49;;;;;;;32.95;17.45;;;;;;;3.18;100.00;99988.38;4903062;29;20634;-81
2021/12/04 07:07:15;;;;;;;35.30;17.95;;;;;;;3.13;100.00;99977.91;4902429;29;20176;-81
2021/12/04 07:09:41;;;;;;;38.95;18.75;;;;;;;3.18;100.00;99989.25;4889338;29;20201;-80
2021/12/04 07:12:08;;;;;;;37.53;18.08;;;;;;;3.18;100.00;99978.66;4907709;29;20538;-80
2021/12/04 07:14:34;;;;;;;36.75;18.25;;;;;;;3.19;100.00;99987.47;4901620;29;20212;-80
2021/12/04 07:17:02;;;;;;;38.80;18.35;;;;;;;3.11;100.00;99987.66;4919332;29;20255;-81
2021/12/04 07:19:29;;;;;;;35.00;18.88;;;;;;;3.29;100.00;99989.88;4903014;29;20194;-82
2021/12/04 07:21:54;;;;;;;38.92;19.80;;;;;;;3.17;100.00;99983.97;4918951;29;20220;-81
2021/12/04 07:24:20;;;;;;;33.78;16.85;;;;;;;3.15;100.00;99976.09;4904137;29;20279;-81
2021/12/04 07:26:45;;;;;;;36.28;17.52;;;;;;;3.19;100.00;99984.81;4903637;29;20179;-81
2021/12/04 07:29:11;;;;;;;34.85;17.83;;;;;;;3.18;100.00;99977.78;4919940;29;20172;-81
2021/12/04 07:31:37;;;;;;;34.28;17.80;;;;;;;3.26;100.00;99983.81;4903109;29;20654;-81
2021/12/04 07:34:03;;;;;;;40.58;17.85;;;;;;;3.13;100.00;99985.84;4907455;29;20188;-80
2021/12/04 07:36:29;;;;;;;35.28;18.13;;;;;;;3.13;100.00;99983.19;4928927;29;20188;-79
2021/12/04 07:38:55;;;;;;;35.15;17.15;;;;;;;3.12;100.00;99989.38;4929124;29;20373;-80
2021/12/04 07:41:20;;;;;;;33.08;17.38;;;;;;;3.18;100.00;99983.94;4928038;29;20199;-80
2021/12/04 07:43:46;;;;;;;35.72;19.25;;;;;;;3.13;100.00;99987.59;4927618;29;20175;-80
2021/12/04 07:46:12;;;;;;;35.75;19.33;;;;;;;3.12;100.00;99978.78;4912735;29;20187;-80
2021/12/04 07:48:37;;;;;;;33.35;18.13;;;;;;;3.14;100.00;99984.06;4911172;29;20199;-79
2021/12/04 07:51:04;;;;;;;38.65;17.77;;;;;;;3.14;100.00;99992.00;4908354;29;20192;-81
2021/12/04 07:53:31;;;;;;;42.75;24.08;;;;;;;3.08;100.00;99982.41;4907607;29;20504;-82
2021/12/04 07:55:56;;;;;;;36.17;20.17;;;;;;;3.10;100.00;99993.81;4901876;29;20196;-82
2021/12/04 07:58:22;;;;;;;38.72;19.73;;;;;;;3.12;100.00;99996.44;4901165;29;20244;-82
2021/12/04 08:00:48;;;;;;;41.63;20.23;;;;;;;3.12;100.00;99980.56;4883986;29;20204;-82
2021/12/04 08:03:13;;;;;;;40.17;20.80;;;;;;;3.15;100.00;99999.03;4883764;29;20271;-82
2021/12/04 08:05:39;;;;;;;44.95;21.40;;;;;;;3.17;100.00;99998.09;4883505;29;20698;-82
2021/12/04 08:08:04;;;;;;;43.25;21.25;;;;;;;3.12;100.00;99999.09;4883074;29;20648;-82
2021/12/04 08:10:31;;;;;;;39.33;19.88;;;;;;;3.15;100.00;99994.63;4883365;29;20192;-82
2021/12/04 08:12:58;;;;;;;37.28;20.58;;;;;;;3.12;100.00;99996.44;4883035;29;20169;-82
2021/12/04 08:15:23;;;;;;;42.17;19.88;;;;;;;3.12;100.00;99999.97;4899892;29;20176;-82
2021/12/04 08:17:49;;;;;;;35.47;17.75;;;;;;;3.04;100.00;100000.13;4882937;29;20173;-82
2021/12/04 08:20:16;;;;;;;35.90;19.25;;;;;;;3.07;100.00;100002.72;4883057;29;20576;-82
2021/12/04 08:22:42;;;;;;;36.90;19.27;;;;;;;3.09;100.00;100005.34;4899481;29;20232;-82
2021/12/04 08:25:09;;;;;;;29.70;17.05;;;;;;;3.14;100.00;100005.22;4867532;29;20658;-82
2021/12/04 08:27:35;;;;;;;31.63;17.13;;;;;;;3.13;100.00;100007.00;4885239;29;20189;-82
2021/12/04 08:30:03;;;;;;;34.97;17.75;;;;;;;3.13;100.00;99993.78;4900061;29;20212;-82
2021/12/04 08:32:28;;;;;;;31.50;17.35;;;;;;;3.13;100.00;100004.38;4883038;29;20586;-82
2021/12/04 08:34:53;;;;;;;34.58;17.23;;;;;;;3.09;100.00;100005.34;4882993;29;20199;-82
2021/12/04 08:37:19;;;;;;;36.63;17.77;;;;;;;3.09;100.00;99998.25;4882492;29;20177;-82
2021/12/04 08:39:45;;;;;;;35.30;18.25;;;;;;;3.13;100.00;99999.06;4882815;29;20208;-82
2021/12/04 08:42:11;;;;;;;34.35;17.85;;;;;;;3.13;100.00;100014.06;4890692;29;20211;-82
2021/12/04 08:44:38;;;;;;;33.58;16.88;;;;;;;3.15;100.00;100006.97;4871453;29;20640;-82
2021/12/04 08:47:04;;;;;;;34.40;17.30;;;;;;;3.15;100.00;100006.97;4886186;29;20182;-81
2021/12/04 08:49:31;;;;;;;37.20;17.92;;;;;;;3.17;100.00;100006.06;4893735;29;20287;-82
2021/12/04 08:51:57;;;;;;;29.00;17.73;;;;;;;3.19;100.00;100006.88;4885279;29;20232;-82
2021/12/04 08:54:23;;;;;;;33.67;17.73;;;;;;;3.18;100.00;100018.38;4863981;29;20173;-82
2021/12/04 08:56:48;;;;;;;30.95;16.98;;;;;;;3.13;100.00;100001.72;4880500;29;20194;-82
2021/12/04 08:59:13;;;;;;;27.15;15.05;;;;;;;3.17;100.00;99995.47;4863497;29;20177;-82
2021/12/04 09:01:41;;;;;;;30.15;16.38;;;;;;;3.21;100.00;100001.53;4863161;29;20241;-82
2021/12/04 09:04:14;;;;;;;31.65;15.48;;;;;;;3.24;100.00;99994.41;4878740;29;20173;-82
2021/12/04 09:06:39;;;;;;;31.77;16.70;;;;;;;3.24;100.00;99996.19;4880147;29;20229;-82
2021/12/04 09:09:08;;;;;;;29.48;16.25;;;;;;;3.24;100.00;99997.06;4863875;29;20280;-82
2021/12/04 09:11:38;;;;;;;27.40;15.90;;;;;;;3.27;100.00;100001.41;4864275;29;20205;-82
2021/12/04 09:14:04;;;;;;;29.98;15.52;;;;;;;3.25;100.00;99998.78;4881401;29;20230;-82
2021/12/04 09:16:30;;;;;;;26.70;16.73;;;;;;;3.32;100.00;100004.81;4864282;29;20186;-82
2021/12/04 09:18:56;;;;;;;28.48;16.20;;;;;;;3.18;100.00;99991.03;4881135;29;20179;-82
2021/12/04 09:21:23;;;;;;;28.45;15.98;;;;;;;3.24;100.00;99994.41;4863434;29;20205;-82
2021/12/04 09:23:53;;;;;;;24.70;15.07;;;;;;;3.25;100.00;99995.28;4864963;29;20271;-82
2021/12/04 09:32:37;;;;;;;27.27;15.95;;;;;;;3.33;100.00;100005.72;4813830;29;20184;-82
2021/12/04 09:59:35;;;;;;;31.25;17.80;;;;;;;3.25;100.00;99996.16;4881226;29;20166;-80
2021/12/04 10:02:07;;;;;;;27.42;17.77;;;;;;;3.32;100.00;99998.66;4864726;29;20214;-79
2021/12/04 10:15:36;;;;;;;26.95;16.48;;;;;;;3.06;100.00;99976.25;4899045;29;20185;-79
2021/12/04 10:24:02;;;;;;;28.67;17.42;;;;;;;3.17;100.00;99976.94;4901029;29;20216;-79
2021/12/04 10:34:23;;;;;;;29.27;17.38;;;;;;;3.24;100.00;99982.97;4901299;29;20191;-79
2021/12/04 10:36:48;;;;;;;26.38;17.50;;;;;;;3.13;100.00;99979.66;4888368;29;20488;-79
2021/12/04 10:39:14;;;;;;;29.83;18.88;;;;;;;3.20;100.00;99974.22;4921787;29;20533;-78
2021/12/04 10:41:43;;;;;;;31.67;19.92;;;;;;;3.28;100.00;99972.28;4920916;29;20219;-79
2021/12/04 10:44:08;;;;;;;30.20;17.60;;;;;;;3.30;100.00;99975.75;4906427;29;20168;-79
2021/12/04 10:46:34;;;;;;;28.40;18.33;;;;;;;3.32;100.00;99967.75;4905364;29;20646;-81
2021/12/04 10:49:09;;;;;;;29.98;18.15;;;;;;;3.27;100.00;99969.66;4923192;29;20204;-80
2021/12/04 10:51:51;;;;;;;31.25;18.60;;;;;;;3.39;100.00;99960.53;4907420;29;20199;-80
2021/12/04 10:54:27;;;;;;;30.92;18.98;;;;;;;3.33;100.00;99972.16;4904346;29;20206;-80
2021/12/04 11:00:35;;;;;;;26.90;18.02;;;;;;;3.36;100.00;99966.78;4874482;29;20314;-80
2021/12/04 11:02:37;;;;;;;30.48;17.42;;;;;;;3.31;100.00;99976.63;4909740;29;20262;-80
2021/12/04 11:05:27;;;;;;;30.45;17.77;;;;;;;3.27;100.00;99969.66;4923801;29;20208;-80
2021/12/04 11:45:26;;;;;;;33.60;20.10;;;;;;;3.20;100.00;99954.81;4892936;29;20199;-81
2021/12/04 11:47:55;;;;;;;26.33;18.42;;;;;;;3.11;100.00;99950.59;4920509;29;20168;-82
2021/12/04 11:50:41;;;;;;;25.80;17.77;;;;;;;3.06;100.00;99952.44;4920454;29;20200;-81
2021/12/04 11:53:11;;;;;;;27.83;18.60;;;;;;;3.09;100.00;99949.75;4903231;29;20172;-81
2021/12/04 11:55:42;;;;;;;24.15;18.60;;;;;;;3.13;100.00;99935.56;4903197;29;20601;-81
2021/12/04 11:58:32;;;;;;;25.83;18.75;;;;;;;3.03;100.00;99923.41;4920749;29;20235;-81
2021/12/04 12:01:06;;;;;;;28.67;18.88;;;;;;;3.12;100.00;99923.22;4903342;29;20192;-81
2021/12/04 12:03:36;;;;;;;28.83;19.65;;;;;;;3.00;100.00;99937.59;4903638;29;20224;-81
2021/12/04 12:06:10;;;;;;;31.08;20.98;;;;;;;3.05;100.00;99925.13;4921237;29;20651;-80
2021/12/04 12:08:40;;;;;;;29.60;21.17;;;;;;;3.34;100.00;99930.66;4903528;29;20164;-80
2021/12/04 12:11:12;;;;;;;33.95;20.45;;;;;;;3.17;100.00;99926.66;4903474;29;20222;-80
2021/12/04 12:13:49;;;;;;;32.00;20.75;;;;;;;3.08;100.00;99913.59;4918667;29;20164;-80
2021/12/04 12:16:21;;;;;;;33.45;20.48;;;;;;;3.05;100.00;99929.56;4919182;29;20192;-80
2021/12/04 12:18:52;;;;;;;44.20;21.52;;;;;;;3.41;100.00;99927.84;4920257;29;20248;-80
2021/12/04 12:21:23;;;;;;;36.03;21.95;;;;;;;3.30;100.00;99933.41;4920705;29;20210;-80
2021/12/04 12:27:09;;;;;;;30.27;21.90;;;;;;;3.23;100.00;99923.84;4926108;29;20183;-79
2021/12/04 12:38:38;;;;;;;26.73;19.55;;;;;;;3.18;100.00;99932.81;4927933;29;20172;-80
2021/12/04 12:41:24;;;;;;;26.40;19.45;;;;;;;3.20;100.00;99928.34;4929504;29;20200;-80
2021/12/04 12:44:07;;;;;;;23.48;18.23;;;;;;;3.22;100.00;99930.03;4910904;29;20602;-81
2021/12/04 12:46:46;;;;;;;28.58;19.63;;;;;;;3.16;100.00;99932.81;4904300;29;20208;-80
2021/12/04 12:49:38;;;;;;;28.88;20.52;;;;;;;3.22;100.00;99931.84;4904600;29;20184;-81
2021/12/04 12:52:20;;;;;;;30.50;21.65;;;;;;;3.29;100.00;99936.06;4920627;29;20256;-80
2021/12/04 12:54:59;;;;;;;34.15;22.02;;;;;;;3.25;100.00;99931.75;4903716;29;20240;-80
2021/12/04 12:57:29;;;;;;;35.65;23.63;;;;;;;3.28;100.00;99931.69;4921531;29;20208;-80
2021/12/04 13:14:12;;;;;;;36.10;22.92;;;;;;;3.28;100.00;99911.38;4921099;29;20172;-81
2021/12/04 13:16:38;;;;;;;37.08;22.70;;;;;;;3.25;100.00;99919.38;4904841;29;20201;-81
2021/12/04 13:19:09;;;;;;;35.30;23.45;;;;;;;3.23;100.00;99912.38;4884161;29;20165;-81
2021/12/04 13:21:38;;;;;;;37.80;24.00;;;;;;;3.21;100.00;99914.19;4884996;29;20232;-82
2021/12/04 13:24:10;;;;;;;37.55;23.60;;;;;;;3.25;100.00;99914.09;4883582;29;20292;-81
2021/12/04 13:26:38;;;;;;;33.80;23.77;;;;;;;3.21;100.00;99904.47;4884204;29;20184;-81
2021/12/04 13:29:07;;;;;;;34.05;22.13;;;;;;;3.14;100.00;99902.88;4883642;29;20208;-81
2021/12/04 13:31:37;;;;;;;31.77;20.77;;;;;;;3.18;100.00;99898.38;4883915;29;20269;-81
2021/12/04 13:34:04;;;;;;;28.42;20.67;;;;;;;3.21;100.00;99900.97;4875707;29;20220;-81
2021/12/04 13:36:31;;;;;;;29.75;20.67;;;;;;;3.20;100.00;99897.44;4898452;29;20480;-80
2021/12/04 13:39:09;;;;;;;25.10;17.98;;;;;;;3.23;100.00;99897.38;4900274;29;20588;-80
2021/12/04 13:41:37;;;;;;;29.17;19.15;;;;;;;3.15;100.00;99899.34;4882948;29;20204;-81
2021/12/04 13:44:06;;;;;;;28.35;20.48;;;;;;;3.22;100.00;99893.00;4882975;29;20180;-80
2021/12/04 13:46:50;;;;;;;28.30;19.52;;;;;;;3.28;100.00;99892.00;4884967;29;20244;-80
2021/12/04 13:49:20;;;;;;;27.67;18.30;;;;;;;3.24;100.00;99895.59;4883871;29;20187;-81
2021/12/04 13:51:57;;;;;;;25.00;18.90;;;;;;;3.23;100.00;99875.31;4884400;29;20169;-80
2021/12/04 13:54:25;;;;;;;25.00;17.38;;;;;;;3.20;100.00;99872.75;4900570;29;20173;-81
2021/12/04 13:56:51;;;;;;;22.88;17.05;;;;;;;3.23;100.00;99876.19;4884425;29;20189;-81
2021/12/04 13:59:23;;;;;;;26.00;18.75;;;;;;;3.23;100.00;99883.25;4900942;29;20207;-82
2021/12/04 14:01:49;;;;;;;26.58;18.65;;;;;;;3.24;100.00;99875.28;4885657;29;20232;-80
2021/12/04 14:04:18;;;;;;;24.73;18.33;;;;;;;3.22;100.00;99882.41;4902610;29;20172;-81
2021/12/04 14:06:58;;;;;;;27.20;19.48;;;;;;;3.18;100.00;99864.84;4885237;29;20187;-81
2021/12/04 14:09:31;;;;;;;25.63;19.60;;;;;;;3.19;100.00;99878.94;4899036;29;20172;-81
2021/12/04 14:11:57;;;;;;;27.13;18.15;;;;;;;3.22;100.00;99885.03;4899809;29;20160;-82
2021/12/04 14:14:26;;;;;;;28.13;19.27;;;;;;;3.24;100.00;99880.59;4899172;29;20649;-81
2021/12/04 14:16:54;;;;;;;25.67;18.70;;;;;;;3.27;100.00;99884.94;4899552;29;20599;-81
2021/12/04 14:19:21;;;;;;;27.75;19.52;;;;;;;3.27;100.00;99884.94;4885609;29;20187;-81
2021/12/04 14:22:03;;;;;;;27.48;19.63;;;;;;;3.28;100.00;99884.91;4900509;29;20276;-81
2021/12/04 14:24:44;;;;;;;23.67;18.75;;;;;;;3.27;100.00;99874.34;4889297;29;20173;-81
2021/12/04 14:27:15;;;;;;;28.60;20.17;;;;;;;3.29;100.00;99875.19;4900869;29;20336;-80
2021/12/04 14:29:46;;;;;;;24.48;17.23;;;;;;;3.22;100.00;99886.84;4901718;29;20208;-81